Terminal Aerodrome Forecast
Issued by NWS

Home | Current Version | Previous Version | Text Only | Print | Product List | Glossary On
Versions: 1 2 3 4 5 6 7 8 9 10 11 12 13
000
FTUS45 KRIW 012000 AAA
TAFWRL
TAF AMD
KWRL 012038Z 0121/0218 VRB05G15KT P6SM VCSH FEW100
     FM012200 VRB05KT P6SM FEW100
     FM020300 VRB05KT P6SM FEW110 BKN250
     FM020700 VRB04KT P6SM FEW120=

USA.gov is the U.S. government's official web portal to all federal, state and local government web resources and services.